createdAt,value
2023-03-08T00:00:16.503Z,32.60
2023-03-08T00:02:48.440Z,29.92
2023-03-08T00:05:20.481Z,28.02
2023-03-08T00:07:55.890Z,28.77
2023-03-08T00:10:27.874Z,29.10
2023-03-08T00:13:00.098Z,29.08
2023-03-08T00:15:32.149Z,25.75
2023-03-08T00:18:05.228Z,26.58
2023-03-08T00:20:37.247Z,31.95
2023-03-08T00:23:10.068Z,25.63
2023-03-08T00:25:42.029Z,26.33
2023-03-08T00:28:14.072Z,26.40
2023-03-08T00:30:46.298Z,31.35
2023-03-08T00:33:18.332Z,25.80
2023-03-08T00:36:05.500Z,26.50
2023-03-08T00:38:38.507Z,26.88
2023-03-08T00:41:11.508Z,21.38
2023-03-08T00:43:43.634Z,26.52
2023-03-08T00:46:16.620Z,29.90
2023-03-08T00:48:49.757Z,28.58
2023-03-08T00:51:22.335Z,27.85
2023-03-08T00:53:54.531Z,23.75
2023-03-08T00:56:27.688Z,22.42
2023-03-08T00:58:59.753Z,25.00
2023-03-08T01:01:33.642Z,22.85
2023-03-08T01:04:05.741Z,27.25
2023-03-08T01:06:37.853Z,21.67
2023-03-08T01:09:11.678Z,26.10
2023-03-08T01:11:44.968Z,22.83
2023-03-08T01:14:18.812Z,23.48
2023-03-08T01:16:50.760Z,20.25
2023-03-08T01:19:22.744Z,22.67
2023-03-08T01:21:54.790Z,20.30
2023-03-08T01:24:26.755Z,24.35
2023-03-08T01:27:01.154Z,25.40
2023-03-08T01:29:33.182Z,26.95
2023-03-08T01:32:06.036Z,22.90
2023-03-08T01:34:38.803Z,22.73
2023-03-08T01:37:11.149Z,18.85
2023-03-08T01:39:43.257Z,23.52
2023-03-08T01:42:15.478Z,22.10
2023-03-08T01:44:56.406Z,19.80
2023-03-08T01:47:31.542Z,23.10
2023-03-08T01:50:20.204Z,25.83
2023-03-08T01:52:55.607Z,25.45
2023-03-08T01:55:27.927Z,23.40
2023-03-08T01:58:00.088Z,23.75
2023-03-08T02:00:32.069Z,23.08
2023-03-08T02:03:12.189Z,29.98
2023-03-08T02:05:44.773Z,23.65
2023-03-08T02:08:23.444Z,23.55
2023-03-08T02:10:58.063Z,24.80
2023-03-08T02:16:06.607Z,26.13
2023-03-08T02:18:56.918Z,24.17
2023-03-08T02:21:31.080Z,20.90
2023-03-08T02:24:07.220Z,26.27
2023-03-08T02:26:39.252Z,24.48
2023-03-08T02:29:11.995Z,24.42
2023-03-08T02:31:44.602Z,24.23
2023-03-08T02:34:16.808Z,23.97
2023-03-08T02:36:48.940Z,27.90
2023-03-08T02:39:20.998Z,35.42
2023-03-08T02:41:53.008Z,27.42
2023-03-08T02:44:25.110Z,30.52
2023-03-08T02:46:58.452Z,28.58
2023-03-08T02:49:30.657Z,29.38
2023-03-08T02:52:03.799Z,27.48
2023-03-08T02:54:35.781Z,29.13
2023-03-08T02:57:07.852Z,31.88
2023-03-08T02:59:41.926Z,25.83
2023-03-08T03:02:14.277Z,28.83
2023-03-08T03:04:46.585Z,29.40
2023-03-08T03:07:18.546Z,35.30
2023-03-08T03:09:51.247Z,29.27
2023-03-08T03:12:23.817Z,26.35
2023-03-08T03:14:55.962Z,29.75
2023-03-08T03:17:28.479Z,32.45
2023-03-08T03:20:01.145Z,30.48
2023-03-08T03:22:33.428Z,26.83
2023-03-08T03:25:06.541Z,33.58
2023-03-08T03:27:38.792Z,32.55
2023-03-08T03:32:59.251Z,33.30
2023-03-08T03:35:38.947Z,42.90
2023-03-08T03:38:12.580Z,43.45
2023-03-08T03:40:46.278Z,47.25
2023-03-08T03:43:19.347Z,36.23
2023-03-08T03:46:03.690Z,30.40
2023-03-08T03:48:37.085Z,29.23
2023-03-08T03:53:53.332Z,31.00
2023-03-08T03:56:28.827Z,31.83
2023-03-08T03:59:05.490Z,35.38
2023-03-08T04:01:37.933Z,27.75
2023-03-08T04:04:22.363Z,30.50
2023-03-08T04:06:55.078Z,31.60
2023-03-08T04:09:30.945Z,35.20
2023-03-08T04:12:16.644Z,31.88
2023-03-08T04:14:49.737Z,30.17
2023-03-08T04:17:23.776Z,32.83
2023-03-08T04:19:58.776Z,28.20
2023-03-08T04:22:32.920Z,27.63
2023-03-08T04:25:12.276Z,29.15
2023-03-08T04:27:53.442Z,29.10
2023-03-08T04:30:26.566Z,28.88
2023-03-08T04:33:00.528Z,32.03
2023-03-08T04:35:40.625Z,29.42
2023-03-08T04:38:13.322Z,31.40
2023-03-08T04:41:13.808Z,31.23
2023-03-08T04:46:41.793Z,37.15
2023-03-08T04:49:17.457Z,37.22
2023-03-08T04:51:54.345Z,36.70
2023-03-08T04:54:28.067Z,30.80
2023-03-08T04:57:06.447Z,38.13
2023-03-08T05:02:12.629Z,34.65
2023-03-08T05:04:45.971Z,36.08
2023-03-08T05:07:18.386Z,37.72
2023-03-08T05:09:52.287Z,35.50
2023-03-08T05:12:24.487Z,33.60
2023-03-08T05:15:01.339Z,32.42
2023-03-08T05:17:34.052Z,34.07
2023-03-08T05:20:07.971Z,35.03
2023-03-08T05:22:57.723Z,28.33
2023-03-08T05:25:33.953Z,35.15
2023-03-08T05:28:07.993Z,34.55
2023-03-08T05:30:40.604Z,36.88
2023-03-08T05:33:12.991Z,35.17
2023-03-08T05:35:53.740Z,36.55
2023-03-08T05:38:26.978Z,36.10
2023-03-08T05:41:04.739Z,33.67
2023-03-08T05:43:37.133Z,33.13
2023-03-08T05:46:14.568Z,33.50
2023-03-08T05:48:48.075Z,41.88
2023-03-08T05:51:23.233Z,36.40
2023-03-08T05:53:55.872Z,32.65
2023-03-08T05:56:28.537Z,38.25
2023-03-08T05:59:10.725Z,42.55
2023-03-08T06:01:42.914Z,39.03
2023-03-08T06:04:25.754Z,44.47
2023-03-08T06:06:59.697Z,44.10
2023-03-08T06:09:38.882Z,37.20
2023-03-08T06:12:13.324Z,45.55
2023-03-08T06:14:46.036Z,43.50
2023-03-08T06:17:20.058Z,41.53
2023-03-08T06:19:54.886Z,41.92
2023-03-08T06:22:27.794Z,39.88
2023-03-08T06:25:00.893Z,37.60
2023-03-08T06:27:38.690Z,43.92
2023-03-08T06:30:19.105Z,39.80
2023-03-08T06:32:52.222Z,40.10
2023-03-08T06:35:25.023Z,40.38
2023-03-08T06:38:02.613Z,41.58
2023-03-08T06:43:08.951Z,40.10
2023-03-08T06:45:41.464Z,40.35
2023-03-08T06:48:14.714Z,38.67
2023-03-08T06:50:47.416Z,39.83
2023-03-08T06:53:21.081Z,40.67
2023-03-08T06:56:12.333Z,43.15
2023-03-08T06:58:46.125Z,43.00
2023-03-08T07:01:19.033Z,39.33
2023-03-08T07:03:52.829Z,41.95
2023-03-08T07:06:25.098Z,33.97
2023-03-08T07:08:57.321Z,37.88
2023-03-08T07:11:31.110Z,37.25
2023-03-08T07:14:03.412Z,37.97
2023-03-08T07:16:35.548Z,35.90
2023-03-08T07:19:07.611Z,37.13
2023-03-08T07:21:39.668Z,34.72
2023-03-08T07:24:11.974Z,33.30
2023-03-08T07:26:44.001Z,37.25
2023-03-08T07:29:16.071Z,35.42
2023-03-08T07:31:48.088Z,38.80
2023-03-08T07:34:20.120Z,46.20
2023-03-08T07:36:52.444Z,34.67
2023-03-08T07:39:24.469Z,38.78
2023-03-08T07:41:56.568Z,33.92
2023-03-08T07:44:28.775Z,36.33
2023-03-08T07:47:00.792Z,39.15
2023-03-08T07:49:33.064Z,35.75
2023-03-08T07:52:05.393Z,35.35
2023-03-08T07:54:37.417Z,37.45
2023-03-08T07:57:15.692Z,36.60
2023-03-08T07:59:47.826Z,37.42
2023-03-08T08:02:20.708Z,39.50
2023-03-08T08:04:52.799Z,35.67
2023-03-08T08:07:24.905Z,44.97
2023-03-08T08:09:57.197Z,32.95
2023-03-08T08:12:29.199Z,33.58
2023-03-08T08:15:01.647Z,38.75
2023-03-08T08:17:33.988Z,35.47
2023-03-08T08:20:09.433Z,32.58
2023-03-08T08:22:41.512Z,28.77
2023-03-08T08:25:13.991Z,30.60
2023-03-08T08:27:46.533Z,35.28
2023-03-08T08:30:19.358Z,28.50
2023-03-08T08:32:51.408Z,31.42
2023-03-08T08:35:31.148Z,33.33
2023-03-08T08:38:09.748Z,28.92
2023-03-08T08:40:42.413Z,27.98
2023-03-08T08:43:14.510Z,35.17
2023-03-08T08:45:48.415Z,29.83
2023-03-08T08:48:20.521Z,30.55
2023-03-08T08:50:52.874Z,33.38
2023-03-08T08:53:25.340Z,26.15
2023-03-08T08:55:58.141Z,28.85
2023-03-08T08:58:30.300Z,34.90
2023-03-08T09:01:02.267Z,32.15
2023-03-08T09:03:34.524Z,36.13
2023-03-08T09:06:06.525Z,32.92
2023-03-08T09:08:38.650Z,36.13
2023-03-08T09:11:11.657Z,36.50
2023-03-08T09:13:43.722Z,40.58
2023-03-08T09:16:28.721Z,41.83
2023-03-08T09:19:03.571Z,39.53
2023-03-08T09:21:37.079Z,38.05
2023-03-08T09:29:15.500Z,33.90
2023-03-08T09:31:47.624Z,40.50
2023-03-08T09:34:19.672Z,40.20
2023-03-08T09:36:52.236Z,38.83
2023-03-08T09:39:24.963Z,40.97
2023-03-08T09:42:00.833Z,37.78
2023-03-08T09:44:48.868Z,40.65
2023-03-08T09:48:06.992Z,39.60
2023-03-08T09:50:49.325Z,42.78
2023-03-08T09:53:49.689Z,34.90
2023-03-08T09:56:32.366Z,41.03
2023-03-08T09:59:36.664Z,34.70
2023-03-08T10:02:26.004Z,38.53
2023-03-08T10:05:13.406Z,38.47
2023-03-08T10:07:52.689Z,38.65
2023-03-08T10:10:42.124Z,37.75
2023-03-08T10:13:33.966Z,36.25
2023-03-08T10:16:33.330Z,36.85
2023-03-08T10:19:17.938Z,36.05
2023-03-08T10:21:51.681Z,36.58
2023-03-08T10:27:25.817Z,33.85
2023-03-08T10:30:01.799Z,38.40
2023-03-08T10:32:43.852Z,36.42
2023-03-08T10:35:17.287Z,39.85
2023-03-08T10:37:52.494Z,39.75
2023-03-08T10:40:24.735Z,36.45
2023-03-08T10:43:01.187Z,41.00
2023-03-08T10:45:33.943Z,37.33
2023-03-08T10:48:06.687Z,39.38
2023-03-08T10:50:38.719Z,38.72
2023-03-08T10:53:14.795Z,38.00
2023-03-08T10:55:49.246Z,38.50
2023-03-08T10:58:38.808Z,40.30
2023-03-08T11:01:32.454Z,40.17
2023-03-08T11:04:19.649Z,33.00
2023-03-08T11:06:51.871Z,40.55
2023-03-08T11:09:29.509Z,35.85
2023-03-08T11:12:01.524Z,29.08
2023-03-08T11:14:33.999Z,35.38
2023-03-08T11:17:17.140Z,37.20
2023-03-08T11:19:57.589Z,39.08
2023-03-08T11:22:36.270Z,34.92
2023-03-08T11:25:25.334Z,36.78
2023-03-08T11:28:35.204Z,36.00
2023-03-08T11:31:07.285Z,34.58
2023-03-08T11:34:11.115Z,31.25
2023-03-08T11:37:02.424Z,34.65
2023-03-08T11:39:42.617Z,36.20
2023-03-08T11:42:35.176Z,38.47
2023-03-08T11:45:32.820Z,35.28
2023-03-08T11:48:04.782Z,21.27
2023-03-08T11:50:49.722Z,22.80
2023-03-08T11:53:35.842Z,23.15
2023-03-08T11:56:28.959Z,23.48
2023-03-08T11:59:10.878Z,25.23
2023-03-08T12:02:13.973Z,29.65
2023-03-08T12:05:02.126Z,26.05
2023-03-08T12:07:39.840Z,24.30
2023-03-08T12:10:26.949Z,25.17
2023-03-08T12:13:38.455Z,29.40
2023-03-08T12:16:32.400Z,26.45
2023-03-08T12:19:10.872Z,26.23
2023-03-08T12:21:56.306Z,24.23
2023-03-08T12:24:48.869Z,24.02
2023-03-08T12:27:45.820Z,28.63
2023-03-08T12:30:58.722Z,29.55
2023-03-08T12:33:32.613Z,32.55
2023-03-08T12:36:17.490Z,28.30
2023-03-08T12:38:56.869Z,25.33
2023-03-08T12:41:31.860Z,16.20
2023-03-08T12:44:04.112Z,21.10
2023-03-08T12:47:02.150Z,17.73
2023-03-08T12:49:44.929Z,19.40
2023-03-08T12:52:19.897Z,22.15
2023-03-08T12:55:01.456Z,17.63
2023-03-08T12:57:42.954Z,18.48
2023-03-08T13:00:23.815Z,20.73
2023-03-08T13:03:06.693Z,17.27
2023-03-08T13:05:40.278Z,13.13
2023-03-08T13:08:15.298Z,15.13
2023-03-08T13:10:50.526Z,17.55
2023-03-08T13:13:50.261Z,21.83
2023-03-08T13:16:32.174Z,23.60
2023-03-08T13:19:16.889Z,21.17
2023-03-08T13:22:00.510Z,16.67
2023-03-08T13:24:45.066Z,14.02
2023-03-08T13:28:04.063Z,12.00
2023-03-08T13:30:38.876Z,4.50
2023-03-08T13:33:19.078Z,3.35
2023-03-08T13:36:02.418Z,4.68
2023-03-08T13:38:37.822Z,2.83
2023-03-08T13:41:10.256Z,2.20
2023-03-08T13:43:42.516Z,2.35
2023-03-08T13:46:18.678Z,5.50
2023-03-08T13:48:51.023Z,4.25
2023-03-08T13:51:26.850Z,0.98
2023-03-08T13:53:58.936Z,1.60
2023-03-08T13:56:31.150Z,2.05
2023-03-08T13:59:03.293Z,3.70
2023-03-08T14:01:46.247Z,6.97
2023-03-08T14:04:28.511Z,4.13
2023-03-08T14:07:01.471Z,2.22
2023-03-08T14:09:33.694Z,1.10
2023-03-08T14:12:07.339Z,3.40
2023-03-08T14:17:27.280Z,3.13
2023-03-08T14:20:07.518Z,2.92
2023-03-08T14:22:40.615Z,1.75
2023-03-08T14:25:22.039Z,1.80
2023-03-08T14:27:55.138Z,3.20
2023-03-08T14:30:30.171Z,1.88
2023-03-08T14:33:15.764Z,6.05
2023-03-08T14:35:57.778Z,4.00
2023-03-08T14:38:32.504Z,1.85
2023-03-08T14:41:10.322Z,1.30
2023-03-08T14:43:50.375Z,2.30
2023-03-08T14:46:23.626Z,2.20
2023-03-08T14:49:04.950Z,3.80
2023-03-08T14:51:41.751Z,2.45
2023-03-08T14:54:31.446Z,3.63
2023-03-08T14:57:19.883Z,2.67
2023-03-08T14:59:52.765Z,1.98
2023-03-08T15:02:24.747Z,2.03
2023-03-08T15:04:56.708Z,2.63
2023-03-08T15:07:34.156Z,5.22
2023-03-08T15:10:07.602Z,1.75
2023-03-08T15:12:40.965Z,2.38
2023-03-08T15:15:14.795Z,1.00
2023-03-08T15:17:47.331Z,1.63
2023-03-08T15:20:19.942Z,3.55
2023-03-08T15:22:54.358Z,1.40
2023-03-08T15:25:29.676Z,1.98
2023-03-08T15:28:01.983Z,1.48
2023-03-08T15:30:34.525Z,1.13
2023-03-08T15:33:06.766Z,1.27
2023-03-08T15:35:39.389Z,1.20
2023-03-08T15:38:17.075Z,0.80
2023-03-08T15:40:49.093Z,3.38
2023-03-08T15:43:21.160Z,2.38
2023-03-08T15:45:53.517Z,2.25
2023-03-08T15:48:25.582Z,1.00
2023-03-08T15:50:58.527Z,1.75
2023-03-08T15:53:35.719Z,4.78
2023-03-08T15:56:08.214Z,2.78
2023-03-08T15:58:40.364Z,6.85
2023-03-08T16:01:12.530Z,1.23
2023-03-08T16:03:44.601Z,2.15
2023-03-08T16:06:17.665Z,1.30
2023-03-08T16:08:49.910Z,2.28
2023-03-08T16:11:22.854Z,2.75
2023-03-08T16:13:54.862Z,3.60
2023-03-08T16:16:44.484Z,4.97
2023-03-08T16:19:17.352Z,2.17
2023-03-08T16:21:51.729Z,5.22
2023-03-08T16:24:23.684Z,2.08
2023-03-08T16:26:56.544Z,5.13
2023-03-08T16:29:28.620Z,2.03
2023-03-08T16:32:01.160Z,2.20
2023-03-08T16:34:33.364Z,3.67
2023-03-08T16:37:05.791Z,4.22
2023-03-08T16:39:37.763Z,3.10
2023-03-08T16:42:13.605Z,4.80
2023-03-08T16:44:50.654Z,6.35
2023-03-08T16:47:24.779Z,3.17
2023-03-08T16:49:56.807Z,2.90
2023-03-08T16:52:28.920Z,2.58
2023-03-08T16:55:00.994Z,1.80
2023-03-08T16:57:33.177Z,2.38
2023-03-08T17:00:06.689Z,3.33
2023-03-08T17:05:12.917Z,3.40
2023-03-08T17:07:47.141Z,2.33
2023-03-08T17:10:19.230Z,5.82
2023-03-08T17:12:51.390Z,3.80
2023-03-08T17:15:23.333Z,2.22
2023-03-08T17:17:56.064Z,2.75
2023-03-08T17:20:28.028Z,1.90
2023-03-08T17:23:00.285Z,3.22
2023-03-08T17:25:35.561Z,4.07
2023-03-08T17:28:07.894Z,2.10
2023-03-08T17:30:41.444Z,2.70
2023-03-08T17:33:13.653Z,8.27
2023-03-08T17:35:45.739Z,5.00
2023-03-08T17:38:17.879Z,6.65
2023-03-08T17:40:49.936Z,25.70
2023-03-08T17:43:21.924Z,13.82
2023-03-08T17:45:59.294Z,23.83
2023-03-08T17:48:31.852Z,18.75
2023-03-08T17:51:25.001Z,6.22
2023-03-08T17:54:14.707Z,6.50
2023-03-08T17:56:49.717Z,7.10
2023-03-08T17:59:21.749Z,4.10
2023-03-08T18:01:54.659Z,3.65
2023-03-08T18:04:27.315Z,3.22
2023-03-08T18:07:04.009Z,3.97
2023-03-08T18:09:38.939Z,5.57
2023-03-08T18:12:13.867Z,4.00
2023-03-08T18:18:56.440Z,4.95
2023-03-08T18:21:30.993Z,5.97
2023-03-08T18:24:05.346Z,9.57
2023-03-08T18:26:53.887Z,7.07
2023-03-08T18:29:25.924Z,3.75
2023-03-08T18:31:57.998Z,3.13
2023-03-08T18:34:30.102Z,5.18
2023-03-08T18:37:02.320Z,4.07
2023-03-08T18:39:34.323Z,6.13
2023-03-08T18:42:06.554Z,3.88
2023-03-08T18:44:38.835Z,3.05
2023-03-08T18:47:10.930Z,5.78
2023-03-08T18:49:44.058Z,3.00
2023-03-08T18:52:16.553Z,1.85
2023-03-08T18:54:49.836Z,3.65
2023-03-08T18:57:25.594Z,2.45
2023-03-08T18:59:57.780Z,3.67
2023-03-08T19:02:30.024Z,4.68
2023-03-08T19:05:02.796Z,12.10
2023-03-08T19:07:34.927Z,3.37
2023-03-08T19:10:07.519Z,8.43
2023-03-08T19:12:41.273Z,2.20
2023-03-08T19:15:15.662Z,2.00
2023-03-08T19:17:48.968Z,4.07
2023-03-08T19:20:21.092Z,2.25
2023-03-08T19:22:53.697Z,3.42
2023-03-08T19:25:28.613Z,3.97
2023-03-08T19:28:01.044Z,7.78
2023-03-08T19:30:35.705Z,1.83
2023-03-08T19:33:07.994Z,1.40
2023-03-08T19:35:40.756Z,0.88
2023-03-08T19:38:19.331Z,4.53
2023-03-08T19:43:55.467Z,1.63
2023-03-08T19:46:27.580Z,1.58
2023-03-08T19:48:59.810Z,4.95
2023-03-08T19:51:32.176Z,1.55
2023-03-08T19:54:06.135Z,1.63
2023-03-08T19:56:38.204Z,0.90
2023-03-08T19:59:11.263Z,1.10
2023-03-08T20:01:43.640Z,4.00
2023-03-08T20:04:16.481Z,4.07
2023-03-08T20:06:50.163Z,5.30
2023-03-08T20:11:58.778Z,3.65
2023-03-08T20:14:31.383Z,4.18
2023-03-08T20:17:05.275Z,1.80
2023-03-08T20:22:10.782Z,1.70
2023-03-08T20:24:43.230Z,1.17
2023-03-08T20:27:15.479Z,1.77
2023-03-08T20:29:47.549Z,3.15
2023-03-08T20:32:20.058Z,2.42
2023-03-08T20:34:52.273Z,2.60
2023-03-08T20:37:24.317Z,2.15
2023-03-08T20:39:58.985Z,4.05
2023-03-08T20:42:31.466Z,2.00
2023-03-08T20:45:07.031Z,0.98
2023-03-08T20:47:39.429Z,2.05
2023-03-08T20:50:11.984Z,2.97
2023-03-08T20:52:44.202Z,5.38
2023-03-08T20:55:16.634Z,1.33
2023-03-08T20:57:51.034Z,5.57
2023-03-08T21:00:25.667Z,2.72
2023-03-08T21:02:59.543Z,1.80
2023-03-08T21:05:38.459Z,1.45
2023-03-08T21:08:11.236Z,2.15
2023-03-08T21:10:43.687Z,3.50
2023-03-08T21:13:19.458Z,2.63
2023-03-08T21:15:59.954Z,2.95
2023-03-08T21:18:32.712Z,5.93
2023-03-08T21:21:07.874Z,2.40
2023-03-08T21:23:40.412Z,2.90
2023-03-08T21:26:14.203Z,3.77
2023-03-08T21:28:47.336Z,2.88
2023-03-08T21:31:20.459Z,2.65
2023-03-08T21:33:53.918Z,2.15
2023-03-08T21:36:26.844Z,3.00
2023-03-08T21:39:00.576Z,3.53
2023-03-08T21:44:11.192Z,2.25
2023-03-08T21:47:00.024Z,6.05
2023-03-08T21:49:35.799Z,3.40
2023-03-08T21:52:08.198Z,1.95
2023-03-08T21:54:44.447Z,4.20
2023-03-08T21:57:17.329Z,2.28
2023-03-08T21:59:52.776Z,3.10
2023-03-08T22:02:26.985Z,5.30
2023-03-08T22:05:02.104Z,2.97
2023-03-08T22:07:34.990Z,5.82
2023-03-08T22:10:14.627Z,5.85
2023-03-08T22:12:48.085Z,7.95
2023-03-08T22:17:54.127Z,5.18
2023-03-08T22:20:27.961Z,6.95
2023-03-08T22:23:01.106Z,5.65
2023-03-08T22:25:33.490Z,4.82
2023-03-08T22:28:05.877Z,4.78
2023-03-08T22:30:41.108Z,4.30
2023-03-08T22:33:13.952Z,6.35
2023-03-08T22:35:48.142Z,3.13
2023-03-08T22:38:21.170Z,4.30
2023-03-08T22:40:53.975Z,5.88
2023-03-08T22:43:27.064Z,4.45
2023-03-08T22:46:07.898Z,4.85
2023-03-08T22:48:40.478Z,5.38
2023-03-08T22:51:14.503Z,4.20
2023-03-08T22:53:47.029Z,6.28
2023-03-08T22:56:26.625Z,5.03
2023-03-08T22:59:00.029Z,3.55
2023-03-08T23:01:33.592Z,6.90
2023-03-08T23:06:40.237Z,4.22
2023-03-08T23:09:13.785Z,5.93
2023-03-08T23:11:46.750Z,5.07
2023-03-08T23:14:19.277Z,7.35
2023-03-08T23:16:52.764Z,3.90
2023-03-08T23:19:25.286Z,3.22
2023-03-08T23:21:58.271Z,4.85
2023-03-08T23:24:31.091Z,7.53
2023-03-08T23:27:04.494Z,4.85
2023-03-08T23:29:37.591Z,3.47
2023-03-08T23:32:10.006Z,5.13
2023-03-08T23:34:43.284Z,2.75
2023-03-08T23:37:15.497Z,3.30
2023-03-08T23:39:47.723Z,3.05
2023-03-08T23:42:20.343Z,4.40
2023-03-08T23:44:54.331Z,7.17
2023-03-08T23:47:26.694Z,4.30
2023-03-08T23:49:59.066Z,3.65
2023-03-08T23:52:31.259Z,2.78
2023-03-08T23:55:04.707Z,2.65
2023-03-08T23:57:37.282Z,4.45
